createdAt,value
2023-01-25T00:01:45.426Z,7.40
2023-01-25T00:04:18.795Z,7.10
2023-01-25T00:06:52.474Z,8.20
2023-01-25T00:09:26.943Z,7.70
2023-01-25T00:12:00.157Z,7.90
2023-01-25T00:14:33.332Z,7.80
2023-01-25T00:17:06.876Z,6.60
2023-01-25T00:19:40.097Z,7.10
2023-01-25T00:22:13.388Z,7.10
2023-01-25T00:24:46.583Z,7.40
2023-01-25T00:27:19.800Z,6.60
2023-01-25T00:29:53.400Z,9.60
2023-01-25T00:32:49.621Z,8.20
2023-01-25T00:35:23.950Z,8.90
2023-01-25T00:37:57.827Z,9.00
2023-01-25T00:40:31.304Z,8.20
2023-01-25T00:43:04.575Z,7.10
2023-01-25T00:45:37.897Z,6.50
2023-01-25T00:48:11.767Z,7.50
2023-01-25T00:50:45.064Z,7.80
2023-01-25T00:53:18.339Z,6.20
2023-01-25T00:55:56.882Z,8.30
2023-01-25T00:58:30.426Z,8.60
2023-01-25T01:01:04.218Z,7.30
2023-01-25T01:03:37.610Z,7.20
2023-01-25T01:06:13.501Z,7.00
2023-01-25T01:08:46.911Z,6.50
2023-01-25T01:11:20.199Z,7.80
2023-01-25T01:13:53.398Z,7.70
2023-01-25T01:16:27.314Z,7.50
2023-01-25T01:19:00.585Z,7.70
2023-01-25T01:21:33.878Z,6.90
2023-01-25T01:24:08.047Z,6.90
2023-01-25T01:26:41.388Z,6.50
2023-01-25T01:29:15.054Z,6.90
2023-01-25T01:31:51.187Z,6.30
2023-01-25T01:34:24.767Z,5.70
2023-01-25T01:36:58.008Z,6.40
2023-01-25T01:39:31.337Z,7.10
2023-01-25T01:42:04.751Z,7.30
2023-01-25T01:44:52.899Z,6.50
2023-01-25T01:47:32.572Z,8.60
2023-01-25T01:50:18.076Z,7.90
2023-01-25T01:52:51.786Z,8.10
2023-01-25T01:55:25.592Z,6.70
2023-01-25T01:58:03.420Z,7.60
2023-01-25T02:00:40.087Z,7.40
2023-01-25T02:03:14.833Z,7.20
2023-01-25T02:05:58.193Z,9.00
2023-01-25T02:08:36.636Z,6.70
2023-01-25T02:11:11.329Z,6.60
2023-01-25T02:13:44.972Z,6.60
2023-01-25T02:16:22.899Z,6.30
2023-01-25T02:18:57.966Z,6.90
2023-01-25T02:21:37.734Z,6.30
2023-01-25T02:24:18.543Z,6.10
2023-01-25T02:26:52.119Z,8.20
2023-01-25T02:29:26.066Z,5.50
2023-01-25T02:32:07.268Z,6.60
2023-01-25T02:34:40.521Z,6.00
2023-01-25T02:37:16.942Z,7.20
2023-01-25T02:39:50.382Z,5.00
2023-01-25T02:42:23.621Z,6.40
2023-01-25T02:44:56.888Z,7.00
2023-01-25T02:47:30.211Z,5.80
2023-01-25T02:50:03.605Z,5.50
2023-01-25T02:52:36.879Z,5.80
2023-01-25T02:55:12.342Z,5.10
2023-01-25T02:57:45.616Z,5.60
2023-01-25T03:00:19.979Z,5.80
2023-01-25T03:02:53.249Z,6.00
2023-01-25T03:05:26.989Z,7.80
2023-01-25T03:08:00.170Z,5.70
2023-01-25T03:10:33.404Z,6.40
2023-01-25T03:13:06.696Z,6.10
2023-01-25T03:15:39.937Z,6.10
2023-01-25T03:18:13.145Z,5.50
2023-01-25T03:20:46.378Z,7.30
2023-01-25T03:23:19.714Z,5.60
2023-01-25T03:25:54.702Z,6.50
2023-01-25T03:28:28.209Z,5.20
2023-01-25T03:31:01.528Z,6.50
2023-01-25T03:33:34.879Z,4.70
2023-01-25T03:36:10.045Z,5.40
2023-01-25T03:38:43.363Z,6.10
2023-01-25T03:41:16.600Z,5.70
2023-01-25T03:43:49.810Z,4.50
2023-01-25T03:46:23.010Z,4.40
2023-01-25T03:48:56.302Z,5.40
2023-01-25T03:51:29.557Z,5.30
2023-01-25T03:54:03.378Z,6.10
2023-01-25T03:56:36.692Z,5.30
2023-01-25T03:59:11.170Z,6.80
2023-01-25T04:01:44.438Z,5.10
2023-01-25T04:04:17.688Z,5.50
2023-01-25T04:06:50.958Z,5.90
2023-01-25T04:09:24.234Z,6.20
2023-01-25T04:11:57.460Z,5.50
2023-01-25T04:14:43.722Z,5.10
2023-01-25T04:17:17.828Z,5.80
2023-01-25T04:19:51.366Z,5.60
2023-01-25T04:22:24.577Z,4.80
2023-01-25T04:24:57.837Z,4.60
2023-01-25T04:27:31.270Z,5.40
2023-01-25T04:30:04.902Z,6.30
2023-01-25T04:32:40.448Z,6.50
2023-01-25T04:35:14.232Z,7.40
2023-01-25T04:37:53.415Z,7.40
2023-01-25T04:40:27.153Z,5.90
2023-01-25T04:43:00.606Z,6.40
2023-01-25T04:45:35.814Z,6.70
2023-01-25T04:48:12.026Z,7.10
2023-01-25T04:50:46.905Z,4.90
2023-01-25T04:53:20.255Z,5.80
2023-01-25T04:55:53.712Z,5.20
2023-01-25T04:58:27.176Z,5.70
2023-01-25T05:01:05.482Z,6.40
2023-01-25T05:03:38.785Z,4.80
2023-01-25T05:06:12.452Z,7.10
2023-01-25T05:08:45.850Z,11.00
2023-01-25T05:11:19.091Z,6.40
2023-01-25T05:13:54.761Z,5.80
2023-01-25T05:16:28.082Z,7.60
2023-01-25T05:19:01.375Z,6.80
2023-01-25T05:21:52.357Z,7.90
2023-01-25T05:24:25.917Z,7.60
2023-01-25T05:27:03.839Z,5.80
2023-01-25T05:29:39.765Z,8.00
2023-01-25T05:32:15.595Z,8.70
2023-01-25T05:34:49.502Z,8.30
2023-01-25T05:37:23.739Z,8.40
2023-01-25T05:39:57.026Z,11.40
2023-01-25T05:42:30.385Z,7.60
2023-01-25T05:45:03.746Z,8.40
2023-01-25T05:47:37.096Z,11.60
2023-01-25T05:50:12.673Z,8.00
2023-01-25T05:52:48.266Z,9.60
2023-01-25T05:55:21.767Z,9.60
2023-01-25T05:57:57.927Z,13.20
2023-01-25T06:00:31.348Z,11.50
2023-01-25T06:03:05.808Z,10.90
2023-01-25T06:05:39.163Z,11.20
2023-01-25T06:08:12.437Z,11.10
2023-01-25T06:10:45.678Z,12.50
2023-01-25T06:13:19.146Z,10.20
2023-01-25T06:15:58.346Z,11.00
2023-01-25T06:18:34.559Z,12.10
2023-01-25T06:21:08.631Z,13.80
2023-01-25T06:23:44.194Z,10.70
2023-01-25T06:26:19.362Z,11.90
2023-01-25T06:28:53.362Z,13.00
2023-01-25T06:31:27.021Z,11.70
2023-01-25T06:34:04.373Z,11.80
2023-01-25T06:36:37.785Z,10.50
2023-01-25T06:39:11.084Z,14.40
2023-01-25T06:41:44.326Z,14.50
2023-01-25T06:44:17.742Z,13.30
2023-01-25T06:46:51.057Z,15.90
2023-01-25T06:49:24.392Z,12.00
2023-01-25T06:51:57.655Z,14.00
2023-01-25T06:54:31.224Z,12.90
2023-01-25T06:57:05.015Z,14.20
2023-01-25T06:59:38.823Z,11.20
2023-01-25T07:02:17.470Z,9.90
2023-01-25T07:07:22.813Z,12.80
2023-01-25T07:10:00.439Z,19.60
2023-01-25T07:12:34.380Z,13.90
2023-01-25T07:15:10.151Z,11.80
2023-01-25T07:17:43.860Z,12.40
2023-01-25T07:20:18.167Z,11.50
2023-01-25T07:22:54.227Z,14.80
2023-01-25T07:25:27.785Z,15.30
2023-01-25T07:28:01.259Z,17.20
2023-01-25T07:30:34.577Z,25.50
2023-01-25T07:33:08.022Z,24.20
2023-01-25T07:35:41.347Z,17.00
2023-01-25T07:38:14.922Z,22.10
2023-01-25T07:40:54.417Z,19.20
2023-01-25T07:43:27.944Z,18.40
2023-01-25T07:46:07.087Z,17.10
2023-01-25T07:48:41.239Z,20.20
2023-01-25T07:51:23.500Z,22.70
2023-01-25T07:53:59.113Z,40.80
2023-01-25T07:56:35.239Z,82.70
2023-01-25T07:59:09.320Z,94.40
2023-01-25T08:01:43.052Z,78.50
2023-01-25T08:04:16.440Z,34.60
2023-01-25T08:06:49.757Z,51.30
2023-01-25T08:09:23.008Z,65.30
2023-01-25T08:11:56.335Z,55.00
2023-01-25T08:14:30.257Z,49.80
2023-01-25T08:17:03.610Z,52.80
2023-01-25T08:19:36.990Z,48.10
2023-01-25T08:22:13.132Z,41.40
2023-01-25T08:24:46.458Z,44.30
2023-01-25T08:27:19.844Z,35.30
2023-01-25T08:29:53.833Z,39.50
2023-01-25T08:32:27.413Z,36.40
2023-01-25T08:35:01.317Z,34.00
2023-01-25T08:37:34.857Z,45.50
2023-01-25T08:40:10.486Z,37.20
2023-01-25T08:42:44.126Z,34.30
2023-01-25T08:45:17.457Z,43.30
2023-01-25T08:47:50.821Z,40.80
2023-01-25T08:50:25.161Z,32.20
2023-01-25T08:52:58.814Z,37.10
2023-01-25T08:55:32.246Z,34.80
2023-01-25T08:58:05.629Z,35.70
2023-01-25T09:00:39.064Z,33.20
2023-01-25T09:03:13.532Z,34.40
2023-01-25T09:05:47.056Z,33.70
2023-01-25T09:08:20.307Z,32.50
2023-01-25T09:10:53.753Z,32.90
2023-01-25T09:13:27.072Z,28.80
2023-01-25T09:16:05.514Z,26.70
2023-01-25T09:18:41.312Z,27.20
2023-01-25T09:21:17.233Z,32.40
2023-01-25T09:24:08.635Z,35.70
2023-01-25T09:26:50.114Z,29.50
2023-01-25T09:29:29.534Z,32.80
2023-01-25T09:32:02.985Z,25.60
2023-01-25T09:34:37.285Z,25.70
2023-01-25T09:37:10.877Z,29.90
2023-01-25T09:39:44.139Z,24.80
2023-01-25T09:42:55.481Z,30.90
2023-01-25T09:45:35.682Z,24.80
2023-01-25T09:48:21.165Z,28.40
2023-01-25T09:51:15.893Z,26.60
2023-01-25T09:53:53.419Z,23.50
2023-01-25T09:56:35.028Z,26.30
2023-01-25T09:59:17.154Z,23.10
2023-01-25T10:01:55.765Z,23.30
2023-01-25T10:04:35.485Z,22.20
2023-01-25T10:07:21.785Z,21.80
2023-01-25T10:10:02.790Z,25.00
2023-01-25T10:12:40.940Z,21.70
2023-01-25T10:15:24.578Z,22.20
2023-01-25T10:18:05.104Z,22.80
2023-01-25T10:20:45.310Z,21.70
2023-01-25T10:23:50.939Z,20.80
2023-01-25T10:26:29.761Z,21.20
2023-01-25T10:29:11.853Z,22.40
2023-01-25T10:31:53.220Z,19.60
2023-01-25T10:34:30.810Z,22.60
2023-01-25T10:37:14.022Z,20.00
2023-01-25T10:39:58.361Z,19.90
2023-01-25T10:42:38.111Z,24.40
2023-01-25T10:45:17.512Z,19.80
2023-01-25T10:47:57.281Z,19.20
2023-01-25T10:50:57.733Z,17.40
2023-01-25T10:53:37.384Z,18.80
2023-01-25T10:56:25.449Z,18.10
2023-01-25T10:59:18.694Z,22.30
2023-01-25T11:01:52.317Z,18.90
2023-01-25T11:04:38.194Z,18.80
2023-01-25T11:07:30.821Z,17.20
2023-01-25T11:10:04.131Z,18.70
2023-01-25T11:12:37.497Z,16.30
2023-01-25T11:15:28.087Z,16.90
2023-01-25T11:18:19.089Z,18.50
2023-01-25T11:21:06.853Z,20.20
2023-01-25T11:23:40.196Z,17.90
2023-01-25T11:26:20.163Z,18.90
2023-01-25T11:29:07.398Z,17.70
2023-01-25T11:31:42.224Z,16.30
2023-01-25T11:34:17.756Z,17.60
2023-01-25T11:37:06.703Z,20.10
2023-01-25T11:39:55.838Z,16.30
2023-01-25T11:42:43.493Z,17.20
2023-01-25T11:45:50.985Z,17.40
2023-01-25T11:48:47.204Z,18.10
2023-01-25T11:51:28.498Z,16.40
2023-01-25T11:54:22.876Z,17.90
2023-01-25T11:57:01.463Z,14.10
2023-01-25T12:00:01.312Z,17.30
2023-01-25T12:03:18.148Z,15.20
2023-01-25T12:06:03.908Z,18.60
2023-01-25T12:09:01.425Z,32.20
2023-01-25T12:11:48.715Z,19.30
2023-01-25T12:14:33.815Z,25.80
2023-01-25T12:20:23.111Z,21.80
2023-01-25T12:23:27.644Z,20.50
2023-01-25T12:26:14.019Z,23.50
2023-01-25T12:28:51.538Z,18.90
2023-01-25T12:31:33.148Z,20.80
2023-01-25T12:34:14.348Z,18.60
2023-01-25T12:36:51.181Z,20.60
2023-01-25T12:39:30.738Z,19.80
2023-01-25T12:42:11.372Z,20.30
2023-01-25T12:44:50.432Z,20.20
2023-01-25T12:47:34.795Z,19.90
2023-01-25T12:50:18.051Z,21.60
2023-01-25T12:52:55.863Z,18.60
2023-01-25T12:55:30.360Z,21.80
2023-01-25T12:58:18.241Z,18.40
2023-01-25T13:00:56.637Z,17.30
2023-01-25T13:03:44.837Z,18.20
2023-01-25T13:06:23.253Z,17.50
2023-01-25T13:09:05.861Z,19.00
2023-01-25T13:11:41.905Z,18.10
2023-01-25T13:14:36.380Z,19.70
2023-01-25T13:17:26.245Z,19.10
2023-01-25T13:20:00.629Z,19.00
2023-01-25T13:22:59.651Z,19.00
2023-01-25T13:25:33.071Z,20.00
2023-01-25T13:28:45.801Z,18.80
2023-01-25T13:31:52.755Z,22.20
2023-01-25T13:35:00.515Z,20.70
2023-01-25T13:37:35.723Z,18.00
2023-01-25T13:40:32.114Z,17.60
2023-01-25T13:43:18.050Z,17.70
2023-01-25T13:45:55.105Z,20.00
2023-01-25T13:48:32.694Z,16.50
2023-01-25T13:51:11.123Z,17.20
2023-01-25T13:53:55.807Z,16.40
2023-01-25T13:56:36.331Z,15.90
2023-01-25T13:59:24.581Z,18.80
2023-01-25T14:01:58.723Z,18.70
2023-01-25T14:04:32.692Z,16.80
2023-01-25T14:07:09.989Z,17.40
2023-01-25T14:09:45.351Z,17.00
2023-01-25T14:12:35.839Z,19.10
2023-01-25T14:15:28.873Z,16.10
2023-01-25T14:18:20.534Z,18.90
2023-01-25T14:21:10.153Z,16.00
2023-01-25T14:23:43.624Z,17.40
2023-01-25T14:26:25.730Z,15.40
2023-01-25T14:29:01.789Z,17.10
2023-01-25T14:31:38.726Z,17.60
2023-01-25T14:34:21.070Z,16.00
2023-01-25T14:37:13.709Z,14.40
2023-01-25T14:39:48.285Z,18.40
2023-01-25T14:42:21.745Z,20.60
2023-01-25T14:44:55.035Z,14.00
2023-01-25T14:47:33.619Z,17.30
2023-01-25T14:50:36.152Z,25.50
2023-01-25T14:53:21.686Z,15.50
2023-01-25T14:55:55.078Z,18.20
2023-01-25T14:58:31.568Z,25.70
2023-01-25T15:01:06.141Z,20.00
2023-01-25T15:03:45.697Z,17.30
2023-01-25T15:06:19.030Z,15.40
2023-01-25T15:08:52.442Z,15.30
2023-01-25T15:11:45.465Z,16.30
2023-01-25T15:14:22.738Z,13.90
2023-01-25T15:16:56.366Z,15.30
2023-01-25T15:19:34.220Z,15.70
2023-01-25T15:22:10.847Z,15.90
2023-01-25T15:24:50.238Z,15.70
2023-01-25T15:27:26.903Z,16.30
2023-01-25T15:30:00.256Z,15.50
2023-01-25T15:32:33.550Z,14.50
2023-01-25T15:35:13.021Z,16.50
2023-01-25T15:37:48.968Z,14.60
2023-01-25T15:40:23.015Z,14.50
2023-01-25T15:42:56.700Z,16.10
2023-01-25T15:45:30.214Z,14.70
2023-01-25T15:48:04.187Z,14.80
2023-01-25T15:50:37.620Z,15.40
2023-01-25T15:53:15.276Z,14.80
2023-01-25T15:55:52.013Z,14.90
2023-01-25T15:58:30.743Z,14.10
2023-01-25T16:03:35.882Z,15.40
2023-01-25T16:06:33.093Z,15.20
2023-01-25T16:09:16.754Z,14.80
2023-01-25T16:11:52.007Z,14.50
2023-01-25T16:14:29.156Z,14.10
2023-01-25T16:17:05.580Z,16.60
2023-01-25T16:19:39.025Z,14.70
2023-01-25T16:22:12.266Z,14.40
2023-01-25T16:24:46.409Z,13.50
2023-01-25T16:27:26.615Z,15.50
2023-01-25T16:29:59.837Z,15.60
2023-01-25T16:32:33.111Z,16.00
2023-01-25T16:35:07.153Z,16.30
2023-01-25T16:37:40.458Z,15.90
2023-01-25T16:40:23.821Z,15.30
2023-01-25T16:42:57.197Z,13.80
2023-01-25T16:45:30.511Z,16.00
2023-01-25T16:48:03.792Z,14.70
2023-01-25T16:50:37.028Z,15.00
2023-01-25T16:53:10.288Z,15.10
2023-01-25T16:55:43.937Z,16.10
2023-01-25T16:58:17.179Z,15.20
2023-01-25T17:00:50.385Z,17.00
2023-01-25T17:03:23.623Z,16.30
2023-01-25T17:05:56.908Z,18.30
2023-01-25T17:08:30.238Z,16.20
2023-01-25T17:11:08.844Z,16.30
2023-01-25T17:16:13.827Z,16.40
2023-01-25T17:18:47.834Z,17.30
2023-01-25T17:21:21.454Z,16.70
2023-01-25T17:23:56.817Z,17.00
2023-01-25T17:26:31.651Z,18.80
2023-01-25T17:29:05.371Z,18.50
2023-01-25T17:31:39.646Z,18.30
2023-01-25T17:34:19.109Z,15.70
2023-01-25T17:36:53.772Z,18.00
2023-01-25T17:39:27.119Z,18.30
2023-01-25T17:42:00.424Z,19.30
2023-01-25T17:44:33.661Z,15.00
2023-01-25T17:47:07.181Z,16.00
2023-01-25T17:49:40.475Z,15.60
2023-01-25T17:52:13.879Z,17.40
2023-01-25T17:54:47.200Z,18.00
2023-01-25T17:57:24.003Z,17.70
2023-01-25T17:59:57.306Z,18.20
2023-01-25T18:02:30.874Z,17.20
2023-01-25T18:05:04.201Z,17.00
2023-01-25T18:07:37.857Z,16.60
2023-01-25T18:10:13.921Z,15.90
2023-01-25T18:13:03.706Z,16.70
2023-01-25T18:15:37.781Z,16.50
2023-01-25T18:18:11.021Z,17.20
2023-01-25T18:20:44.310Z,15.50
2023-01-25T18:23:17.552Z,17.60
2023-01-25T18:25:50.812Z,15.00
2023-01-25T18:28:24.027Z,17.00
2023-01-25T18:31:02.340Z,16.70
2023-01-25T18:33:35.625Z,17.30
2023-01-25T18:36:11.791Z,15.70
2023-01-25T18:38:45.355Z,16.20
2023-01-25T18:41:18.596Z,17.10
2023-01-25T18:43:53.971Z,16.00
2023-01-25T18:46:27.378Z,17.40
2023-01-25T18:49:00.625Z,16.70
2023-01-25T18:51:38.953Z,15.50
2023-01-25T18:54:17.590Z,18.50
2023-01-25T18:56:50.830Z,16.10
2023-01-25T18:59:24.076Z,15.20
2023-01-25T19:01:57.454Z,14.50
2023-01-25T19:04:30.769Z,15.30
2023-01-25T19:07:04.782Z,15.50
2023-01-25T19:09:38.406Z,17.70
2023-01-25T19:12:12.407Z,15.00
2023-01-25T19:14:45.674Z,15.60
2023-01-25T19:17:18.920Z,16.10
2023-01-25T19:19:52.175Z,13.90
2023-01-25T19:22:25.837Z,14.20
2023-01-25T19:24:59.041Z,15.70
2023-01-25T19:27:32.298Z,15.70
2023-01-25T19:30:06.520Z,14.30
2023-01-25T19:32:39.887Z,14.60
2023-01-25T19:35:13.566Z,14.50
2023-01-25T19:37:47.342Z,23.90
2023-01-25T19:40:21.389Z,14.00
2023-01-25T19:42:54.679Z,16.30
2023-01-25T19:45:27.995Z,15.40
2023-01-25T19:48:02.705Z,15.80
2023-01-25T19:50:36.010Z,14.40
2023-01-25T19:53:09.280Z,16.40
2023-01-25T19:55:43.217Z,15.20
2023-01-25T19:58:16.798Z,14.70
2023-01-25T20:00:50.074Z,17.90
2023-01-25T20:03:23.583Z,14.90
2023-01-25T20:06:03.311Z,13.40
2023-01-25T20:08:38.672Z,18.90
2023-01-25T20:11:15.782Z,17.50
2023-01-25T20:13:50.345Z,19.70
2023-01-25T20:16:23.875Z,26.30
2023-01-25T20:18:58.187Z,21.10
2023-01-25T20:21:33.546Z,22.10
2023-01-25T20:24:10.827Z,23.00
2023-01-25T20:26:44.995Z,20.30
2023-01-25T20:29:18.248Z,19.60
2023-01-25T20:31:51.602Z,20.20
2023-01-25T20:34:25.827Z,21.40
2023-01-25T20:37:00.343Z,32.50
2023-01-25T20:39:33.754Z,19.90
2023-01-25T20:42:07.304Z,21.20
2023-01-25T20:44:40.502Z,15.60
2023-01-25T20:47:13.775Z,21.40
2023-01-25T20:49:47.049Z,15.50
2023-01-25T20:52:20.259Z,17.50
2023-01-25T20:54:53.906Z,16.80
2023-01-25T20:57:27.180Z,15.30
2023-01-25T21:00:00.451Z,17.20
2023-01-25T21:02:33.960Z,18.40
2023-01-25T21:05:08.944Z,16.40
2023-01-25T21:07:42.554Z,18.40
2023-01-25T21:10:16.740Z,15.50
2023-01-25T21:12:50.152Z,15.10
2023-01-25T21:15:25.568Z,16.50
2023-01-25T21:17:59.159Z,13.70
2023-01-25T21:20:32.496Z,16.70
2023-01-25T21:23:05.854Z,14.30
2023-01-25T21:25:39.108Z,15.30
2023-01-25T21:28:12.408Z,13.90
2023-01-25T21:30:45.718Z,15.30
2023-01-25T21:33:19.069Z,13.80
2023-01-25T21:35:54.813Z,14.90
2023-01-25T21:38:28.105Z,13.30
2023-01-25T21:41:06.629Z,16.00
2023-01-25T21:43:58.030Z,13.80
2023-01-25T21:46:32.374Z,13.90
2023-01-25T21:49:26.293Z,13.40
2023-01-25T21:52:02.050Z,15.10
2023-01-25T21:54:38.496Z,15.20
2023-01-25T21:57:12.533Z,15.00
2023-01-25T21:59:45.938Z,12.30
2023-01-25T22:02:19.205Z,12.30
2023-01-25T22:04:52.548Z,14.80
2023-01-25T22:07:25.910Z,13.30
2023-01-25T22:09:59.222Z,15.30
2023-01-25T22:12:32.634Z,12.80
2023-01-25T22:15:07.587Z,13.40
2023-01-25T22:17:45.833Z,12.80
2023-01-25T22:20:19.992Z,12.90
2023-01-25T22:22:53.225Z,15.50
2023-01-25T22:25:26.471Z,12.70
2023-01-25T22:28:13.295Z,12.50
2023-01-25T22:30:47.658Z,14.80
2023-01-25T22:33:21.543Z,12.10
2023-01-25T22:35:54.814Z,12.80
2023-01-25T22:38:28.033Z,12.50
2023-01-25T22:41:06.119Z,12.90
2023-01-25T22:43:40.738Z,13.30
2023-01-25T22:46:18.592Z,13.50
2023-01-25T22:48:52.370Z,13.10
2023-01-25T22:51:28.103Z,14.10
2023-01-25T22:54:02.179Z,10.70
2023-01-25T22:56:36.421Z,11.30
2023-01-25T22:59:11.201Z,13.80
2023-01-25T23:01:44.494Z,13.10
2023-01-25T23:04:17.767Z,14.40
2023-01-25T23:07:02.781Z,12.60
2023-01-25T23:12:09.109Z,12.40
2023-01-25T23:14:54.679Z,12.30
2023-01-25T23:17:45.440Z,12.90
2023-01-25T23:20:19.091Z,11.50
2023-01-25T23:22:53.209Z,13.30
2023-01-25T23:25:27.419Z,12.60
2023-01-25T23:28:00.644Z,12.00
2023-01-25T23:30:33.925Z,11.40
2023-01-25T23:33:07.169Z,10.90
2023-01-25T23:35:40.349Z,11.60
2023-01-25T23:38:15.122Z,11.70
2023-01-25T23:40:48.748Z,10.90
2023-01-25T23:43:22.082Z,11.10
2023-01-25T23:45:55.435Z,10.70
2023-01-25T23:48:29.037Z,11.20
2023-01-25T23:51:02.816Z,9.70
2023-01-25T23:53:36.295Z,10.30
2023-01-25T23:56:14.238Z,13.10
2023-01-25T23:58:48.887Z,9.20
